TKJ8CY LTDA-LTAC
Flight info
| Callsign | TKJ8CY |
|---|---|
| Flight time | 1h 4m |
| Altitude | 36000 |
| Route | MILBA UW74 KOZAN DCT POGEN UL605 REMPO UA17 RATSI UL605 BELSU UA17 YUCEL |
| Aircraft | B738/M-SDE2E3FGHIRWXY/LB1 |
Departure
| Time | 2026-05-06 13:45 |
|---|---|
| Airport | Hatay Airport (LTDA) |
Arrival
| Time | 2026-05-06 14:50 |
|---|---|
| Airport | Esenboğa International Airport (LTAC) |
| Time | Latitude | Longitude | Altitude | Speed | Heading |
|---|---|---|---|---|---|
| 2026-05-06 13:28 | 36.36271 | 36.28270 | 286 ft | 0 kts | 270° |
| 2026-05-06 13:35 | 36.36271 | 36.28275 | 287 ft | 2 kts | 270° |
| 2026-05-06 13:35 | 36.36271 | 36.28293 | 287 ft | 2 kts | 270° |
| 2026-05-06 13:35 | 36.36271 | 36.28305 | 287 ft | 1 kts | 270° |
| 2026-05-06 13:35 | 36.36273 | 36.28324 | 287 ft | 2 kts | 246° |
| 2026-05-06 13:36 | 36.36281 | 36.28339 | 287 ft | 1 kts | 227° |
| 2026-05-06 13:36 | 36.36285 | 36.28345 | 287 ft | 1 kts | 220° |
| 2026-05-06 13:36 | 36.36287 | 36.28347 | 287 ft | 0 kts | 222° |
| 2026-05-06 13:38 | 36.36285 | 36.28344 | 287 ft | 1 kts | 221° |
| 2026-05-06 13:38 | 36.36264 | 36.28331 | 288 ft | 5 kts | 199° |
| 2026-05-06 13:39 | 36.36218 | 36.28326 | 288 ft | 8 kts | 161° |
| 2026-05-06 13:39 | 36.36188 | 36.28356 | 289 ft | 0 kts | 132° |
| 2026-05-06 13:40 | 36.36182 | 36.28363 | 289 ft | 3 kts | 130° |
| 2026-05-06 13:40 | 36.36155 | 36.28404 | 289 ft | 8 kts | 130° |
| 2026-05-06 13:40 | 36.36104 | 36.28477 | 289 ft | 13 kts | 129° |
| 2026-05-06 13:40 | 36.36106 | 36.28593 | 289 ft | 18 kts | 46° |
| 2026-05-06 13:41 | 36.36197 | 36.28699 | 289 ft | 17 kts | 42° |
| 2026-05-06 13:41 | 36.36288 | 36.28802 | 289 ft | 17 kts | 42° |
| 2026-05-06 13:41 | 36.36372 | 36.28901 | 289 ft | 16 kts | 43° |
| 2026-05-06 13:41 | 36.36456 | 36.28997 | 289 ft | 17 kts | 42° |
| 2026-05-06 13:42 | 36.36554 | 36.29108 | 289 ft | 21 kts | 42° |
| 2026-05-06 13:42 | 36.36669 | 36.29241 | 289 ft | 23 kts | 44° |
| 2026-05-06 13:42 | 36.36786 | 36.29377 | 289 ft | 22 kts | 43° |
| 2026-05-06 13:42 | 36.36899 | 36.29506 | 289 ft | 21 kts | 42° |
| 2026-05-06 13:43 | 36.37007 | 36.29630 | 289 ft | 20 kts | 43° |
| 2026-05-06 13:43 | 36.37113 | 36.29751 | 289 ft | 20 kts | 42° |
| 2026-05-06 13:43 | 36.37214 | 36.29816 | 289 ft | 13 kts | 9° |
| 2026-05-06 13:43 | 36.37207 | 36.29857 | 289 ft | 7 kts | 192° |
| 2026-05-06 13:44 | 36.37168 | 36.29816 | 289 ft | 0 kts | 224° |
| 2026-05-06 13:44 | 36.37128 | 36.29769 | 289 ft | 36 kts | 223° |
| 2026-05-06 13:44 | 36.36736 | 36.29317 | 289 ft | 116 kts | 223° |
| 2026-05-06 13:45 | 36.36019 | 36.28484 | 530 ft | 149 kts | 223° |
| 2026-05-06 13:45 | 36.34392 | 36.26739 | 1953 ft | 167 kts | 214° |
| 2026-05-06 13:45 | 36.33336 | 36.26080 | 2551 ft | 178 kts | 203° |
| 2026-05-06 13:46 | 36.32091 | 36.25665 | 3063 ft | 196 kts | 180° |
| 2026-05-06 13:46 | 36.31195 | 36.25956 | 3375 ft | 211 kts | 151° |
| 2026-05-06 13:46 | 36.30059 | 36.27973 | 4257 ft | 230 kts | 104° |
| 2026-05-06 13:46 | 36.29936 | 36.29896 | 5216 ft | 226 kts | 86° |
| 2026-05-06 13:47 | 36.30286 | 36.31784 | 5987 ft | 232 kts | 65° |
| 2026-05-06 13:47 | 36.31223 | 36.33406 | 6730 ft | 237 kts | 39° |
| 2026-05-06 13:47 | 36.32636 | 36.34452 | 7516 ft | 239 kts | 16° |
| 2026-05-06 13:47 | 36.34257 | 36.34590 | 8258 ft | 240 kts | 342° |
| 2026-05-06 13:48 | 36.35733 | 36.33735 | 9072 ft | 238 kts | 326° |
| 2026-05-06 13:48 | 36.38096 | 36.31779 | 10407 ft | 242 kts | 326° |
| 2026-05-06 13:48 | 36.40175 | 36.30528 | 11093 ft | 263 kts | 348° |
| 2026-05-06 13:49 | 36.41414 | 36.30441 | 11415 ft | 274 kts | 4° |
| 2026-05-06 13:49 | 36.43331 | 36.30944 | 11898 ft | 291 kts | 14° |
| 2026-05-06 13:49 | 36.45310 | 36.31697 | 12359 ft | 306 kts | 15° |
| 2026-05-06 13:49 | 36.47415 | 36.32486 | 12841 ft | 322 kts | 14° |
| 2026-05-06 13:50 | 36.49620 | 36.33254 | 13322 ft | 338 kts | 13° |
| 2026-05-06 13:50 | 36.51946 | 36.34022 | 13759 ft | 354 kts | 13° |
| 2026-05-06 13:50 | 36.55201 | 36.35068 | 14332 ft | 374 kts | 12° |
| 2026-05-06 13:50 | 36.56910 | 36.35612 | 14616 ft | 384 kts | 12° |
| 2026-05-06 13:51 | 36.59506 | 36.36440 | 15238 ft | 391 kts | 12° |
| 2026-05-06 13:51 | 36.62186 | 36.37297 | 15983 ft | 396 kts | 12° |
| 2026-05-06 13:51 | 36.64861 | 36.38155 | 16683 ft | 401 kts | 12° |
| 2026-05-06 13:51 | 36.67562 | 36.39024 | 17448 ft | 404 kts | 12° |
| 2026-05-06 13:52 | 36.70287 | 36.39902 | 18152 ft | 407 kts | 11° |
| 2026-05-06 13:52 | 36.73006 | 36.40778 | 18846 ft | 411 kts | 11° |
| 2026-05-06 13:52 | 36.75786 | 36.41674 | 19550 ft | 414 kts | 11° |
| 2026-05-06 13:52 | 36.78587 | 36.42579 | 20200 ft | 419 kts | 12° |
| 2026-05-06 13:53 | 36.82306 | 36.44105 | 21067 ft | 426 kts | 19° |
| 2026-05-06 13:53 | 36.84084 | 36.45169 | 21463 ft | 432 kts | 25° |
| 2026-05-06 13:53 | 36.86610 | 36.47254 | 22072 ft | 439 kts | 34° |
| 2026-05-06 13:53 | 36.88897 | 36.49836 | 22657 ft | 446 kts | 43° |
| 2026-05-06 13:54 | 36.91563 | 36.53816 | 23418 ft | 455 kts | 52° |
| 2026-05-06 13:54 | 36.92693 | 36.56055 | 23807 ft | 459 kts | 58° |
| 2026-05-06 13:54 | 36.94372 | 36.60932 | 24456 ft | 469 kts | 70° |
| 2026-05-06 13:54 | 36.94909 | 36.63577 | 24823 ft | 473 kts | 77° |
| 2026-05-06 13:55 | 36.95342 | 36.67661 | 25324 ft | 479 kts | 84° |
| 2026-05-06 13:55 | 36.95523 | 36.71840 | 25770 ft | 484 kts | 87° |
| 2026-05-06 13:55 | 36.95575 | 36.76011 | 26236 ft | 489 kts | 89° |
| 2026-05-06 13:55 | 36.95565 | 36.80293 | 26720 ft | 492 kts | 90° |
| 2026-05-06 13:56 | 36.95532 | 36.84582 | 27175 ft | 496 kts | 90° |
| 2026-05-06 13:56 | 36.95507 | 36.88887 | 27605 ft | 500 kts | 89° |
| 2026-05-06 13:56 | 36.95691 | 36.93207 | 28020 ft | 503 kts | 82° |
| 2026-05-06 13:56 | 36.96356 | 36.97484 | 28745 ft | 498 kts | 73° |
| 2026-05-06 13:57 | 36.97476 | 37.01498 | 29278 ft | 495 kts | 64° |
| 2026-05-06 13:57 | 36.99085 | 37.05313 | 29844 ft | 491 kts | 54° |
| 2026-05-06 13:57 | 37.01088 | 37.08726 | 30371 ft | 487 kts | 46° |
| 2026-05-06 13:57 | 37.03374 | 37.11801 | 30807 ft | 484 kts | 40° |
| 2026-05-06 13:58 | 37.05886 | 37.14565 | 31246 ft | 480 kts | 34° |
| 2026-05-06 13:58 | 37.08615 | 37.17005 | 31661 ft | 477 kts | 28° |
| 2026-05-06 13:58 | 37.11530 | 37.19086 | 32067 ft | 474 kts | 21° |
| 2026-05-06 13:58 | 37.14556 | 37.20755 | 32464 ft | 470 kts | 15° |
| 2026-05-06 13:59 | 37.17651 | 37.22005 | 32860 ft | 465 kts | 9° |
| 2026-05-06 13:59 | 37.20811 | 37.22839 | 33263 ft | 460 kts | 3° |
| 2026-05-06 13:59 | 37.23929 | 37.23246 | 33600 ft | 456 kts | 356° |
| 2026-05-06 13:59 | 37.27094 | 37.23241 | 33886 ft | 452 kts | 351° |
| 2026-05-06 14:00 | 37.30214 | 37.22811 | 34204 ft | 447 kts | 344° |
| 2026-05-06 14:00 | 37.33201 | 37.21982 | 34533 ft | 442 kts | 338° |
| 2026-05-06 14:00 | 37.36100 | 37.20750 | 34842 ft | 437 kts | 332° |
| 2026-05-06 14:00 | 37.38828 | 37.19149 | 35165 ft | 432 kts | 326° |
| 2026-05-06 14:01 | 37.41396 | 37.17173 | 35450 ft | 428 kts | 320° |
| 2026-05-06 14:01 | 37.43744 | 37.14864 | 35733 ft | 424 kts | 314° |
| 2026-05-06 14:01 | 37.45829 | 37.12274 | 36000 ft | 421 kts | 307° |
| 2026-05-06 14:01 | 37.47731 | 37.08107 | 36070 ft | 414 kts | 283° |
| 2026-05-06 14:02 | 37.48067 | 37.05035 | 36074 ft | 412 kts | 270° |
| 2026-05-06 14:02 | 37.47849 | 37.01462 | 36068 ft | 411 kts | 262° |
| 2026-05-06 14:02 | 37.46457 | 36.94550 | 36064 ft | 411 kts | 252° |
| 2026-05-06 14:03 | 37.44601 | 36.87748 | 36073 ft | 411 kts | 259° |
| 2026-05-06 14:03 | 37.44368 | 36.84186 | 36078 ft | 410 kts | 274° |
| 2026-05-06 14:03 | 37.44937 | 36.80683 | 36086 ft | 412 kts | 288° |
| 2026-05-06 14:04 | 37.47681 | 36.74324 | 36078 ft | 417 kts | 303° |
| 2026-05-06 14:04 | 37.51564 | 36.68847 | 36083 ft | 420 kts | 308° |
| 2026-05-06 14:05 | 37.55278 | 36.63224 | 36082 ft | 419 kts | 306° |
| 2026-05-06 14:05 | 37.58959 | 36.57550 | 36090 ft | 419 kts | 307° |
| 2026-05-06 14:06 | 37.62745 | 36.51961 | 36082 ft | 418 kts | 308° |
| 2026-05-06 14:06 | 37.66589 | 36.46444 | 36085 ft | 419 kts | 308° |
| 2026-05-06 14:07 | 37.70438 | 36.40971 | 36087 ft | 418 kts | 309° |
| 2026-05-06 14:07 | 37.74289 | 36.35503 | 36086 ft | 419 kts | 309° |
| 2026-05-06 14:08 | 37.78180 | 36.29971 | 36083 ft | 417 kts | 308° |
| 2026-05-06 14:08 | 37.82009 | 36.24517 | 36083 ft | 418 kts | 308° |
| 2026-05-06 14:09 | 37.85890 | 36.18983 | 36086 ft | 417 kts | 308° |
| 2026-05-06 14:09 | 37.89733 | 36.13508 | 36084 ft | 417 kts | 308° |
| 2026-05-06 14:10 | 37.93572 | 36.08033 | 36088 ft | 417 kts | 308° |
| 2026-05-06 14:10 | 37.97400 | 36.02566 | 36088 ft | 416 kts | 308° |
| 2026-05-06 14:11 | 38.01261 | 35.97040 | 36090 ft | 418 kts | 308° |
| 2026-05-06 14:11 | 38.05090 | 35.91551 | 36081 ft | 418 kts | 309° |
| 2026-05-06 14:12 | 38.08923 | 35.86045 | 36094 ft | 417 kts | 309° |
| 2026-05-06 14:12 | 38.12767 | 35.80513 | 36081 ft | 416 kts | 309° |
| 2026-05-06 14:13 | 38.16608 | 35.74974 | 36095 ft | 417 kts | 309° |
| 2026-05-06 14:13 | 38.20441 | 35.69439 | 36097 ft | 416 kts | 309° |
| 2026-05-06 14:14 | 38.24274 | 35.63895 | 36090 ft | 417 kts | 309° |
| 2026-05-06 14:14 | 38.28102 | 35.58351 | 36079 ft | 416 kts | 309° |
| 2026-05-06 14:15 | 38.31926 | 35.52802 | 36076 ft | 417 kts | 309° |
| 2026-05-06 14:15 | 38.35725 | 35.47278 | 36058 ft | 416 kts | 309° |
| 2026-05-06 14:16 | 38.39541 | 35.41719 | 36070 ft | 416 kts | 309° |
| 2026-05-06 14:16 | 38.43351 | 35.36159 | 36087 ft | 416 kts | 309° |
| 2026-05-06 14:17 | 38.47173 | 35.30575 | 36091 ft | 417 kts | 309° |
| 2026-05-06 14:17 | 38.50959 | 35.25032 | 36096 ft | 416 kts | 309° |
| 2026-05-06 14:18 | 38.54747 | 35.19438 | 36093 ft | 416 kts | 309° |
| 2026-05-06 14:18 | 38.58493 | 35.13778 | 36098 ft | 416 kts | 308° |
| 2026-05-06 14:19 | 38.60342 | 35.10969 | 35920 ft | 413 kts | 308° |
| 2026-05-06 14:19 | 38.62213 | 35.08125 | 36119 ft | 420 kts | 309° |
| 2026-05-06 14:19 | 38.65930 | 35.02475 | 36091 ft | 416 kts | 309° |
| 2026-05-06 14:20 | 38.69658 | 34.96810 | 36102 ft | 419 kts | 309° |
| 2026-05-06 14:20 | 38.71537 | 34.93953 | 35888 ft | 416 kts | 309° |
| 2026-05-06 14:20 | 38.73412 | 34.91102 | 36069 ft | 417 kts | 309° |
| 2026-05-06 14:21 | 38.75283 | 34.88254 | 36237 ft | 422 kts | 309° |
| 2026-05-06 14:21 | 38.77148 | 34.85413 | 36099 ft | 417 kts | 309° |
| 2026-05-06 14:21 | 38.80845 | 34.79774 | 36085 ft | 414 kts | 309° |
| 2026-05-06 14:22 | 38.84567 | 34.74081 | 36076 ft | 417 kts | 309° |
| 2026-05-06 14:22 | 38.88275 | 34.68404 | 36087 ft | 415 kts | 309° |
| 2026-05-06 14:23 | 38.91968 | 34.62737 | 36078 ft | 415 kts | 309° |
| 2026-05-06 14:23 | 38.95672 | 34.57046 | 36083 ft | 416 kts | 309° |
| 2026-05-06 14:24 | 38.99365 | 34.51359 | 36087 ft | 415 kts | 309° |
| 2026-05-06 14:24 | 39.03064 | 34.45653 | 36068 ft | 415 kts | 309° |
| 2026-05-06 14:25 | 39.04894 | 34.42828 | 35821 ft | 413 kts | 309° |
| 2026-05-06 14:25 | 39.06756 | 34.39950 | 36041 ft | 413 kts | 309° |
| 2026-05-06 14:25 | 39.10401 | 34.34125 | 36058 ft | 420 kts | 305° |
| 2026-05-06 14:26 | 39.13570 | 34.27821 | 36057 ft | 418 kts | 303° |
| 2026-05-06 14:26 | 39.17090 | 34.21888 | 36054 ft | 417 kts | 310° |
| 2026-05-06 14:27 | 39.20883 | 34.16268 | 35914 ft | 418 kts | 311° |
| 2026-05-06 14:27 | 39.22802 | 34.13433 | 35525 ft | 415 kts | 310° |
| 2026-05-06 14:27 | 39.24688 | 34.10622 | 34998 ft | 417 kts | 311° |
| 2026-05-06 14:28 | 39.26560 | 34.07805 | 34401 ft | 422 kts | 311° |
| 2026-05-06 14:28 | 39.28437 | 34.04950 | 33993 ft | 416 kts | 311° |
| 2026-05-06 14:28 | 39.30276 | 34.02133 | 33604 ft | 410 kts | 310° |
| 2026-05-06 14:28 | 39.32117 | 33.99301 | 33033 ft | 408 kts | 310° |
| 2026-05-06 14:29 | 39.33917 | 33.96523 | 32399 ft | 408 kts | 310° |
| 2026-05-06 14:29 | 39.35708 | 33.93750 | 32148 ft | 402 kts | 311° |
| 2026-05-06 14:29 | 39.37527 | 33.90929 | 31910 ft | 407 kts | 311° |
| 2026-05-06 14:29 | 39.39336 | 33.88118 | 31674 ft | 410 kts | 310° |
| 2026-05-06 14:30 | 39.41148 | 33.85301 | 31440 ft | 410 kts | 310° |
| 2026-05-06 14:30 | 39.42973 | 33.82460 | 31201 ft | 409 kts | 310° |
| 2026-05-06 14:30 | 39.44775 | 33.79651 | 30969 ft | 409 kts | 310° |
| 2026-05-06 14:30 | 39.46596 | 33.76840 | 30728 ft | 406 kts | 313° |
| 2026-05-06 14:31 | 39.48776 | 33.74564 | 30441 ft | 400 kts | 330° |
| 2026-05-06 14:31 | 39.51325 | 33.73163 | 29872 ft | 399 kts | 339° |
| 2026-05-06 14:31 | 39.53974 | 33.72122 | 29143 ft | 400 kts | 342° |
| 2026-05-06 14:31 | 39.56643 | 33.71205 | 28587 ft | 396 kts | 343° |
| 2026-05-06 14:32 | 39.59287 | 33.70310 | 27956 ft | 395 kts | 343° |
| 2026-05-06 14:32 | 39.61929 | 33.69385 | 27396 ft | 391 kts | 343° |
| 2026-05-06 14:32 | 39.64521 | 33.68443 | 26811 ft | 388 kts | 343° |
| 2026-05-06 14:32 | 39.67095 | 33.67476 | 26230 ft | 385 kts | 342° |
| 2026-05-06 14:33 | 39.69659 | 33.66489 | 25675 ft | 382 kts | 342° |
| 2026-05-06 14:33 | 39.72173 | 33.65503 | 25098 ft | 379 kts | 342° |
| 2026-05-06 14:33 | 39.74680 | 33.64508 | 24491 ft | 376 kts | 342° |
| 2026-05-06 14:33 | 39.77169 | 33.63513 | 23877 ft | 375 kts | 342° |
| 2026-05-06 14:34 | 39.79655 | 33.62515 | 23256 ft | 372 kts | 342° |
| 2026-05-06 14:34 | 39.82130 | 33.61518 | 22568 ft | 372 kts | 342° |
| 2026-05-06 14:34 | 39.84564 | 33.60537 | 21974 ft | 369 kts | 342° |
| 2026-05-06 14:34 | 39.87023 | 33.59544 | 21338 ft | 368 kts | 343° |
| 2026-05-06 14:35 | 39.89457 | 33.58560 | 20693 ft | 367 kts | 343° |
| 2026-05-06 14:35 | 39.91893 | 33.57576 | 20007 ft | 367 kts | 343° |
| 2026-05-06 14:35 | 39.94313 | 33.56596 | 19410 ft | 365 kts | 343° |
| 2026-05-06 14:35 | 39.96735 | 33.55615 | 18828 ft | 363 kts | 343° |
| 2026-05-06 14:36 | 39.99108 | 33.54653 | 18243 ft | 361 kts | 343° |
| 2026-05-06 14:36 | 40.01513 | 33.53677 | 17654 ft | 359 kts | 343° |
| 2026-05-06 14:36 | 40.03889 | 33.52712 | 17030 ft | 358 kts | 343° |
| 2026-05-06 14:36 | 40.06234 | 33.51759 | 16448 ft | 356 kts | 343° |
| 2026-05-06 14:37 | 40.08589 | 33.50803 | 15843 ft | 355 kts | 343° |
| 2026-05-06 14:37 | 40.10947 | 33.49844 | 15241 ft | 353 kts | 343° |
| 2026-05-06 14:37 | 40.13283 | 33.48893 | 14665 ft | 351 kts | 343° |
| 2026-05-06 14:37 | 40.15611 | 33.47945 | 14105 ft | 349 kts | 343° |
| 2026-05-06 14:38 | 40.17914 | 33.47006 | 13572 ft | 346 kts | 343° |
| 2026-05-06 14:38 | 40.20149 | 33.46095 | 13282 ft | 332 kts | 343° |
| 2026-05-06 14:38 | 40.22320 | 33.45208 | 12819 ft | 319 kts | 343° |
| 2026-05-06 14:38 | 40.24396 | 33.44359 | 12393 ft | 306 kts | 343° |
| 2026-05-06 14:39 | 40.26384 | 33.43544 | 12003 ft | 295 kts | 343° |
| 2026-05-06 14:39 | 40.28302 | 33.42759 | 11595 ft | 286 kts | 343° |
| 2026-05-06 14:39 | 40.30193 | 33.41985 | 11042 ft | 283 kts | 342° |
| 2026-05-06 14:39 | 40.32068 | 33.41217 | 10455 ft | 282 kts | 342° |
| 2026-05-06 14:40 | 40.33916 | 33.40459 | 9884 ft | 281 kts | 342° |
| 2026-05-06 14:40 | 40.35762 | 33.39700 | 9496 ft | 272 kts | 342° |
| 2026-05-06 14:40 | 40.37473 | 33.38807 | 9200 ft | 261 kts | 331° |
| 2026-05-06 14:40 | 40.39024 | 33.37618 | 8835 ft | 255 kts | 327° |
| 2026-05-06 14:41 | 40.40507 | 33.36371 | 8426 ft | 252 kts | 327° |
| 2026-05-06 14:41 | 40.41941 | 33.35139 | 8202 ft | 246 kts | 327° |
| 2026-05-06 14:41 | 40.43388 | 33.33884 | 8150 ft | 252 kts | 326° |
| 2026-05-06 14:41 | 40.44721 | 33.32424 | 7987 ft | 250 kts | 305° |
| 2026-05-06 14:42 | 40.45416 | 33.30353 | 7990 ft | 250 kts | 276° |
| 2026-05-06 14:42 | 40.45247 | 33.28108 | 7989 ft | 249 kts | 246° |
| 2026-05-06 14:42 | 40.44257 | 33.26261 | 7987 ft | 249 kts | 217° |
| 2026-05-06 14:42 | 40.42702 | 33.25374 | 7994 ft | 248 kts | 188° |
| 2026-05-06 14:43 | 40.40974 | 33.25128 | 7980 ft | 247 kts | 188° |
| 2026-05-06 14:43 | 40.39345 | 33.24603 | 7980 ft | 237 kts | 203° |
| 2026-05-06 14:43 | 40.37944 | 33.23605 | 8014 ft | 225 kts | 213° |
| 2026-05-06 14:43 | 40.36658 | 33.22422 | 7988 ft | 224 kts | 216° |
| 2026-05-06 14:44 | 40.35419 | 33.21225 | 7990 ft | 223 kts | 216° |
| 2026-05-06 14:44 | 40.34169 | 33.20017 | 7985 ft | 224 kts | 216° |
| 2026-05-06 14:44 | 40.32906 | 33.18807 | 7782 ft | 226 kts | 216° |
| 2026-05-06 14:45 | 40.30389 | 33.16401 | 7069 ft | 219 kts | 216° |
| 2026-05-06 14:45 | 40.29190 | 33.15255 | 6801 ft | 209 kts | 217° |
| 2026-05-06 14:45 | 40.28038 | 33.14154 | 6516 ft | 202 kts | 217° |
| 2026-05-06 14:45 | 40.26915 | 33.13081 | 6239 ft | 195 kts | 217° |
| 2026-05-06 14:46 | 40.25840 | 33.12054 | 5971 ft | 189 kts | 217° |
| 2026-05-06 14:46 | 40.24789 | 33.11052 | 5714 ft | 183 kts | 217° |
| 2026-05-06 14:46 | 40.23788 | 33.10097 | 5473 ft | 174 kts | 217° |
| 2026-05-06 14:46 | 40.22828 | 33.09181 | 5239 ft | 172 kts | 218° |
| 2026-05-06 14:47 | 40.21884 | 33.08282 | 4998 ft | 161 kts | 218° |
| 2026-05-06 14:47 | 40.21007 | 33.07447 | 4788 ft | 152 kts | 218° |
| 2026-05-06 14:47 | 40.20174 | 33.06654 | 4658 ft | 146 kts | 218° |
| 2026-05-06 14:47 | 40.19343 | 33.05861 | 4432 ft | 149 kts | 218° |
| 2026-05-06 14:48 | 40.18522 | 33.05080 | 4198 ft | 144 kts | 218° |
| 2026-05-06 14:48 | 40.17706 | 33.04302 | 4020 ft | 145 kts | 219° |
| 2026-05-06 14:48 | 40.16878 | 33.03515 | 3819 ft | 147 kts | 218° |
| 2026-05-06 14:48 | 40.16069 | 33.02753 | 3631 ft | 143 kts | 217° |
| 2026-05-06 14:49 | 40.15255 | 33.02004 | 3453 ft | 139 kts | 218° |
| 2026-05-06 14:49 | 40.14478 | 33.01271 | 3267 ft | 141 kts | 219° |
| 2026-05-06 14:49 | 40.13685 | 33.00505 | 3150 ft | 137 kts | 219° |
| 2026-05-06 14:49 | 40.13021 | 32.99836 | 3136 ft | 97 kts | 228° |
| 2026-05-06 14:50 | 40.12688 | 32.99522 | 3136 ft | 26 kts | 215° |
| 2026-05-06 14:50 | 40.12658 | 32.99493 | 3136 ft | 0 kts | 216° |
| 2026-05-06 14:50 | 40.12655 | 32.99492 | 3136 ft | 0 kts | 193° |
| 2026-05-06 14:50 | 40.12633 | 32.99500 | 3136 ft | 6 kts | 160° |
| 2026-05-06 14:51 | 40.12597 | 32.99542 | 3138 ft | 0 kts | 105° |
| 2026-05-06 14:51 | 40.12597 | 32.99544 | 3138 ft | 1 kts | 105° |
| 2026-05-06 14:51 | 40.12593 | 32.99573 | 3138 ft | 5 kts | 97° |
| 2026-05-06 14:52 | 40.12591 | 32.99644 | 3140 ft | 10 kts | 91° |
| 2026-05-06 14:52 | 40.12540 | 32.99701 | 3142 ft | 14 kts | 204° |
| 2026-05-06 14:52 | 40.12448 | 32.99616 | 3142 ft | 16 kts | 217° |
| 2026-05-06 14:52 | 40.12352 | 32.99525 | 3140 ft | 17 kts | 216° |
| 2026-05-06 14:53 | 40.12250 | 32.99427 | 3139 ft | 18 kts | 216° |
| 2026-05-06 14:53 | 40.12143 | 32.99325 | 3136 ft | 20 kts | 217° |
| 2026-05-06 14:53 | 40.12031 | 32.99216 | 3136 ft | 19 kts | 213° |
| 2026-05-06 14:53 | 40.11917 | 32.99112 | 3134 ft | 20 kts | 216° |
| 2026-05-06 14:54 | 40.11794 | 32.99065 | 3133 ft | 19 kts | 137° |
| 2026-05-06 14:54 | 40.11706 | 32.99184 | 3136 ft | 16 kts | 120° |
| 2026-05-06 14:54 | 40.11660 | 32.99229 | 3137 ft | 0 kts | 154° |